Time;durP1;ratioP1;P1;durP2;ratioP2;P2;SDS_P1;SDS_P2;PMS_P1;PMS_P2;Temp;Humidity;BMP_temperature;BMP_pressure;BME280_temperature;BME280_humidity;BME280_pressure;Samples;Min_cycle;Max_cycle;Signal;HPM_P1;HPM_P2
2020/12/27 00:00:49;;;;;;;13.70;7.82;;;6.00;92.10;;;;;;4985194;28;20137;-48
2020/12/27 00:03:15;;;;;;;9.13;7.50;;;5.90;91.90;;;;;;4980182;28;20050;-48
2020/12/27 00:05:43;;;;;;;9.63;6.97;;;5.90;92.10;;;;;;4985966;28;20045;-48
2020/12/27 00:08:09;;;;;;;11.23;7.25;;;5.90;92.20;;;;;;4989612;28;20454;-49
2020/12/27 00:10:35;;;;;;;10.43;7.28;;;5.90;92.10;;;;;;4994577;28;20046;-48
2020/12/27 00:13:01;;;;;;;10.05;7.57;;;5.90;91.80;;;;;;4998381;28;20132;-50
2020/12/27 00:15:26;;;;;;;10.13;6.72;;;5.90;92.00;;;;;;4994588;28;20130;-47
2020/12/27 00:17:52;;;;;;;10.20;6.90;;;6.00;91.70;;;;;;4987688;28;20054;-48
2020/12/27 00:20:18;;;;;;;8.73;6.22;;;5.90;91.90;;;;;;4991297;28;20104;-48
2020/12/27 00:22:44;;;;;;;10.10;7.43;;;5.90;91.80;;;;;;4994308;28;20050;-49
2020/12/27 00:25:09;;;;;;;8.95;6.20;;;5.90;91.90;;;;;;4994805;28;20157;-48
2020/12/27 00:27:36;;;;;;;8.70;6.53;;;6.00;91.60;;;;;;4989790;28;20125;-51
2020/12/27 00:30:03;;;;;;;9.90;6.43;;;6.00;91.60;;;;;;4994591;28;20042;-49
2020/12/27 00:32:30;;;;;;;9.35;6.43;;;6.00;91.60;;;;;;4990677;28;20459;-47
2020/12/27 00:34:56;;;;;;;9.40;6.18;;;5.90;91.70;;;;;;4993847;28;20046;-48
2020/12/27 00:37:23;;;;;;;9.15;6.75;;;5.80;91.90;;;;;;4993821;28;20047;-47
2020/12/27 00:39:54;;;;;;;10.63;6.10;;;5.90;91.80;;;;;;4994673;28;20101;-48
2020/12/27 00:42:21;;;;;;;8.13;6.18;;;5.90;91.80;;;;;;4993188;28;20093;-50
2020/12/27 00:44:47;;;;;;;8.93;5.93;;;5.80;91.70;;;;;;4994408;28;20042;-47
2020/12/27 00:47:13;;;;;;;9.75;5.90;;;5.90;91.50;;;;;;4993933;28;20458;-49
2020/12/27 00:49:39;;;;;;;8.40;6.07;;;5.90;91.50;;;;;;4993640;28;21008;-48
2020/12/27 00:52:05;;;;;;;7.32;5.78;;;5.90;91.50;;;;;;4993338;28;20039;-49
2020/12/27 00:54:30;;;;;;;9.25;5.70;;;5.80;92.00;;;;;;4994052;28;20083;-48
2020/12/27 00:56:56;;;;;;;7.53;5.63;;;5.80;92.20;;;;;;4993791;28;20053;-50
2020/12/27 00:59:25;;;;;;;7.90;5.60;;;5.80;92.10;;;;;;4993662;28;20042;-48
2020/12/27 01:01:57;;;;;;;7.88;5.40;;;5.80;92.20;;;;;;5002840;28;20562;-48
2020/12/27 01:04:23;;;;;;;7.10;5.60;;;5.70;91.90;;;;;;4985568;28;20035;-50
2020/12/27 01:06:49;;;;;;;7.90;5.32;;;5.70;92.20;;;;;;5007793;28;20049;-49
2020/12/27 01:09:15;;;;;;;7.88;5.47;;;5.80;92.00;;;;;;4993745;28;20042;-50
2020/12/27 01:11:45;;;;;;;6.97;4.93;;;5.80;92.20;;;;;;5001511;28;20403;-48
2020/12/27 01:14:12;;;;;;;6.07;4.53;;;5.80;91.80;;;;;;4978651;28;20419;-48
2020/12/27 01:16:38;;;;;;;6.70;5.20;;;5.70;92.10;;;;;;4978546;28;20450;-49
2020/12/27 01:19:04;;;;;;;6.97;4.68;;;5.70;92.00;;;;;;4985899;28;20056;-51
2020/12/27 01:21:35;;;;;;;8.82;5.18;;;5.70;92.20;;;;;;4983931;28;20161;-49
2020/12/27 01:24:01;;;;;;;6.80;4.88;;;5.60;92.20;;;;;;4978268;28;20043;-51
2020/12/27 01:26:31;;;;;;;6.63;3.63;;;5.60;92.50;;;;;;4987522;28;20466;-48
2020/12/27 01:28:57;;;;;;;7.10;4.63;;;5.60;92.20;;;;;;4977935;28;20065;-50
2020/12/27 01:31:24;;;;;;;7.28;4.35;;;5.60;92.10;;;;;;4990266;28;20503;-48
2020/12/27 01:33:50;;;;;;;6.68;4.53;;;5.60;92.10;;;;;;4992001;28;20051;-49
2020/12/27 01:36:30;;;;;;;6.13;4.22;;;5.60;92.00;;;;;;4988819;28;20392;-49
2020/12/27 01:38:58;;;;;;;6.78;4.20;;;5.60;91.90;;;;;;4984622;28;20078;-49
2020/12/27 01:41:24;;;;;;;6.13;3.70;;;5.60;91.80;;;;;;4992059;28;20048;-49
2020/12/27 01:43:58;;;;;;;7.38;4.10;;;5.60;92.00;;;;;;4992267;28;20038;-49
2020/12/27 01:46:25;;;;;;;5.28;3.70;;;5.70;91.60;;;;;;4978243;28;20050;-50
2020/12/27 01:48:51;;;;;;;5.03;3.50;;;5.70;91.20;;;;;;4992461;28;20038;-49
2020/12/27 01:51:17;;;;;;;6.35;4.22;;;5.70;91.40;;;;;;4992394;28;20050;-49
2020/12/27 01:53:43;;;;;;;7.50;4.38;;;5.70;91.30;;;;;;5007344;28;20050;-48
2020/12/27 01:56:12;;;;;;;7.32;3.65;;;5.60;91.40;;;;;;4978436;28;20047;-52
2020/12/27 01:58:40;;;;;;;4.72;3.42;;;5.60;91.40;;;;;;4973643;28;20050;-49
2020/12/27 02:01:06;;;;;;;7.00;3.80;;;5.60;91.20;;;;;;4985380;28;20045;-51
2020/12/27 02:03:33;;;;;;;6.95;4.20;;;5.60;91.50;;;;;;4991312;28;20051;-50
2020/12/27 02:05:58;;;;;;;5.28;3.70;;;5.60;91.70;;;;;;4992179;28;20049;-49
2020/12/27 02:08:25;;;;;;;5.53;3.40;;;5.50;91.70;;;;;;4992095;28;20034;-49
2020/12/27 02:10:51;;;;;;;5.78;4.10;;;5.50;91.20;;;;;;4984084;28;20082;-49
2020/12/27 02:13:18;;;;;;;6.35;3.63;;;5.50;91.50;;;;;;4982187;28;20042;-50
2020/12/27 02:15:44;;;;;;;5.93;3.58;;;5.50;91.50;;;;;;4984326;28;20106;-49
2020/12/27 02:18:10;;;;;;;5.40;3.38;;;5.50;91.10;;;;;;4990604;28;20173;-51
2020/12/27 02:20:37;;;;;;;7.32;3.92;;;5.50;91.30;;;;;;4984660;28;20042;-51
2020/12/27 02:23:04;;;;;;;4.28;3.20;;;5.50;91.10;;;;;;4983158;28;20042;-49
2020/12/27 02:25:30;;;;;;;5.50;3.38;;;5.50;91.00;;;;;;4984183;28;20041;-49
2020/12/27 02:27:57;;;;;;;5.53;3.60;;;5.60;90.60;;;;;;4981049;28;20045;-49
2020/12/27 02:30:23;;;;;;;4.97;3.45;;;5.50;91.10;;;;;;4986580;28;20042;-51
2020/12/27 02:32:50;;;;;;;4.72;3.42;;;5.50;91.00;;;;;;4977238;28;20374;-48
2020/12/27 02:35:16;;;;;;;6.15;4.00;;;5.40;91.10;;;;;;4990407;28;20495;-50
2020/12/27 02:37:42;;;;;;;6.03;4.10;;;5.50;91.00;;;;;;5002570;28;20124;-50
2020/12/27 02:40:08;;;;;;;6.65;4.10;;;5.50;90.60;;;;;;4983116;28;20666;-48
2020/12/27 02:42:34;;;;;;;5.53;3.60;;;5.50;90.30;;;;;;4991387;28;20081;-48
2020/12/27 02:47:28;;;;;;;6.90;5.13;;;5.50;90.70;;;;;;4991475;28;20078;-49
2020/12/27 02:49:54;;;;;;;7.45;5.20;;;5.40;91.10;;;;;;4991877;28;20070;-51
2020/12/27 02:52:20;;;;;;;6.50;5.25;;;5.30;91.20;;;;;;4990785;28;20042;-49
2020/12/27 02:54:46;;;;;;;9.27;6.50;;;5.30;91.30;;;;;;4991746;28;20529;-49
2020/12/27 02:57:12;;;;;;;7.88;6.30;;;5.30;91.40;;;;;;4990274;28;20050;-49
2020/12/27 02:59:38;;;;;;;7.72;6.43;;;5.30;91.40;;;;;;4974899;28;20085;-48
2020/12/27 03:02:04;;;;;;;8.07;6.53;;;5.20;91.40;;;;;;4980380;28;20046;-50
2020/12/27 03:04:30;;;;;;;11.77;6.43;;;5.20;91.30;;;;;;4986233;28;20046;-51
2020/12/27 03:06:56;;;;;;;7.93;5.97;;;5.20;91.20;;;;;;4990288;28;20061;-48
2020/12/27 03:09:22;;;;;;;9.63;5.63;;;5.30;91.00;;;;;;4984002;28;20068;-50
2020/12/27 03:11:48;;;;;;;8.52;6.75;;;5.30;90.60;;;;;;4979355;28;20396;-51
2020/12/27 03:14:14;;;;;;;12.57;6.85;;;5.30;90.60;;;;;;4985358;28;20058;-50
2020/12/27 03:16:40;;;;;;;9.80;6.53;;;5.30;90.40;;;;;;4973053;28;20058;-50
2020/12/27 03:19:06;;;;;;;10.85;7.00;;;5.30;90.20;;;;;;4974886;28;20038;-48
2020/12/27 03:21:32;;;;;;;9.25;6.15;;;5.30;90.40;;;;;;4973405;28;20403;-51
2020/12/27 03:23:58;;;;;;;8.73;6.00;;;5.20;90.60;;;;;;4978844;28;20130;-51
2020/12/27 03:26:23;;;;;;;9.63;6.57;;;5.30;90.70;;;;;;4976979;28;20427;-48
2020/12/27 03:28:49;;;;;;;8.13;5.88;;;5.30;90.40;;;;;;4975378;28;20043;-49
2020/12/27 03:31:15;;;;;;;8.88;6.05;;;5.30;90.20;;;;;;4989087;28;20049;-50
2020/12/27 03:33:41;;;;;;;10.20;6.15;;;5.30;90.30;;;;;;4976189;28;20070;-49
2020/12/27 03:36:10;;;;;;;7.65;5.13;;;5.30;90.20;;;;;;4993300;28;20042;-49
2020/12/27 03:38:36;;;;;;;8.48;6.25;;;5.30;90.30;;;;;;4996627;28;20054;-49
2020/12/27 03:41:03;;;;;;;11.98;6.40;;;5.30;90.40;;;;;;4991908;28;20118;-51
2020/12/27 03:43:29;;;;;;;9.00;5.50;;;5.30;90.30;;;;;;4991736;28;20069;-49
2020/12/27 03:45:55;;;;;;;7.93;5.50;;;5.30;89.90;;;;;;4974856;28;20050;-52
2020/12/27 03:48:21;;;;;;;10.20;5.72;;;5.30;90.30;;;;;;4995883;28;20065;-49
2020/12/27 03:50:47;;;;;;;8.02;6.22;;;5.20;90.70;;;;;;4994645;28;20042;-49
2020/12/27 03:53:12;;;;;;;10.57;6.88;;;5.20;90.90;;;;;;4993174;28;20037;-50
2020/12/27 03:55:39;;;;;;;8.75;6.82;;;5.20;91.00;;;;;;4983414;28;20042;-52
2020/12/27 03:58:04;;;;;;;10.07;7.90;;;5.20;90.70;;;;;;4991042;28;20054;-49
2020/12/27 04:00:30;;;;;;;13.48;8.13;;;5.30;90.10;;;;;;4989757;28;20046;-51
2020/12/27 04:02:57;;;;;;;11.93;8.55;;;5.30;90.50;;;;;;4989201;28;20384;-48
2020/12/27 04:05:23;;;;;;;10.75;6.68;;;5.30;90.40;;;;;;4991294;28;20039;-49
2020/12/27 04:07:50;;;;;;;10.32;7.00;;;5.30;90.50;;;;;;4993020;28;20077;-48
2020/12/27 04:10:17;;;;;;;10.45;6.60;;;5.30;90.80;;;;;;4983389;28;20058;-50
2020/12/27 04:12:43;;;;;;;7.70;5.45;;;5.20;91.30;;;;;;4996581;28;20050;-50
2020/12/27 04:15:11;;;;;;;8.65;5.43;;;5.20;91.40;;;;;;4995848;28;20046;-50
2020/12/27 04:17:37;;;;;;;7.57;5.03;;;5.10;91.30;;;;;;5012730;28;20046;-48
2020/12/27 04:20:04;;;;;;;8.30;5.20;;;5.10;91.50;;;;;;4993289;28;20042;-51
2020/12/27 04:22:30;;;;;;;5.80;4.32;;;5.10;91.20;;;;;;4992862;28;20062;-49
2020/12/27 04:24:57;;;;;;;6.18;4.13;;;5.00;91.50;;;;;;4989751;28;20054;-50
2020/12/27 04:27:23;;;;;;;6.70;4.80;;;5.00;91.90;;;;;;5001207;28;20043;-49
2020/12/27 04:29:49;;;;;;;7.07;3.80;;;5.10;91.60;;;;;;4996712;28;20479;-51
2020/12/27 04:32:15;;;;;;;6.18;3.78;;;5.10;91.80;;;;;;4996820;28;20042;-47
2020/12/27 04:34:40;;;;;;;6.97;4.30;;;5.00;91.70;;;;;;4999179;28;20042;-49
2020/12/27 04:37:07;;;;;;;7.05;4.60;;;5.00;91.80;;;;;;4995044;28;20057;-52
2020/12/27 04:39:35;;;;;;;5.18;3.45;;;5.00;92.00;;;;;;4995166;28;20049;-50
2020/12/27 04:42:02;;;;;;;6.63;4.05;;;5.00;92.00;;;;;;4998910;28;20050;-50
2020/12/27 04:44:28;;;;;;;7.15;4.28;;;5.00;91.80;;;;;;4990451;28;20038;-48
2020/12/27 04:46:53;;;;;;;9.20;4.20;;;5.00;92.20;;;;;;4998567;28;20052;-48
2020/12/27 04:49:19;;;;;;;6.40;4.45;;;5.00;92.00;;;;;;4997436;28;20281;-48
2020/12/27 04:51:47;;;;;;;7.28;3.42;;;4.90;92.20;;;;;;4997760;28;20072;-48
2020/12/27 04:54:13;;;;;;;5.57;3.53;;;4.90;92.50;;;;;;4995185;28;20060;-49
2020/12/27 04:56:41;;;;;;;6.13;3.78;;;5.00;92.10;;;;;;5012118;28;20070;-49
2020/12/27 04:59:07;;;;;;;6.75;3.83;;;5.00;92.10;;;;;;4993904;28;20032;-49
2020/12/27 05:01:33;;;;;;;5.10;3.33;;;5.00;91.90;;;;;;5017192;28;20110;-49
2020/12/27 05:03:59;;;;;;;5.05;3.15;;;5.00;92.30;;;;;;4985036;28;20533;-48
2020/12/27 05:06:25;;;;;;;7.80;3.80;;;5.10;91.80;;;;;;4983158;28;20495;-48
2020/12/27 05:08:50;;;;;;;7.82;3.80;;;5.00;92.00;;;;;;4993378;28;20042;-48
2020/12/27 05:11:17;;;;;;;7.05;4.18;;;5.00;92.30;;;;;;4994140;28;20057;-48
2020/12/27 05:13:47;;;;;;;5.45;3.60;;;4.90;92.40;;;;;;4990289;28;20054;-48
2020/12/27 05:16:14;;;;;;;5.78;3.67;;;4.90;92.60;;;;;;4978722;28;20133;-48
2020/12/27 05:18:43;;;;;;;7.47;3.80;;;4.90;92.60;;;;;;4988102;28;20399;-50
2020/12/27 05:21:10;;;;;;;5.00;3.30;;;4.90;92.60;;;;;;4977929;28;20050;-48
2020/12/27 05:23:37;;;;;;;5.20;2.80;;;5.00;92.10;;;;;;4979227;28;20506;-49
2020/12/27 05:26:06;;;;;;;5.78;3.40;;;5.00;92.00;;;;;;4984835;28;20369;-48
2020/12/27 05:28:33;;;;;;;6.53;3.65;;;5.00;92.00;;;;;;4989304;28;20034;-48
2020/12/27 05:31:10;;;;;;;5.47;3.03;;;5.00;92.10;;;;;;4988719;28;20039;-48
2020/12/27 05:33:37;;;;;;;5.85;3.97;;;5.00;92.30;;;;;;4989299;28;20034;-51
2020/12/27 05:36:07;;;;;;;6.18;3.00;;;5.00;92.20;;;;;;4993859;28;20096;-48
2020/12/27 05:38:33;;;;;;;6.45;3.40;;;5.00;92.10;;;;;;4976331;28;20074;-49
2020/12/27 05:41:00;;;;;;;5.00;3.55;;;5.00;92.10;;;;;;4979521;28;20077;-51
2020/12/27 05:43:27;;;;;;;5.95;3.10;;;5.00;92.30;;;;;;4993828;28;20041;-51
2020/12/27 05:45:56;;;;;;;5.47;3.10;;;5.00;92.10;;;;;;4996580;28;20066;-48
2020/12/27 05:48:23;;;;;;;5.07;3.25;;;5.00;92.10;;;;;;4996881;28;20106;-48
2020/12/27 05:50:52;;;;;;;4.72;2.88;;;5.00;92.40;;;;;;4994901;28;20042;-48
2020/12/27 05:53:20;;;;;;;4.10;2.72;;;5.00;92.10;;;;;;4990495;28;20047;-48
2020/12/27 05:55:59;;;;;;;4.20;2.63;;;5.00;92.40;;;;;;4997280;28;20050;-49
2020/12/27 05:58:26;;;;;;;3.92;2.53;;;4.90;92.20;;;;;;4991785;28;20122;-48
2020/12/27 06:00:57;;;;;;;5.28;2.90;;;5.10;91.60;;;;;;4985931;28;20038;-48
2020/12/27 06:03:30;;;;;;;3.63;2.35;;;5.10;91.70;;;;;;4996069;28;20047;-49
2020/12/27 06:05:56;;;;;;;4.57;2.78;;;5.00;91.90;;;;;;4994546;28;20042;-49
2020/12/27 06:08:24;;;;;;;4.28;2.47;;;5.00;92.00;;;;;;4996302;28;20046;-48
2020/12/27 06:10:56;;;;;;;3.83;2.17;;;5.10;91.90;;;;;;4997812;28;20046;-50
2020/12/27 06:13:28;;;;;;;3.75;2.33;;;5.00;92.10;;;;;;4993987;28;20470;-48
2020/12/27 06:15:58;;;;;;;3.88;2.40;;;5.10;92.10;;;;;;4986885;28;20506;-50
2020/12/27 06:18:28;;;;;;;3.65;2.38;;;5.00;92.10;;;;;;4990593;28;20038;-49
2020/12/27 06:21:11;;;;;;;2.95;2.05;;;5.00;92.50;;;;;;4987461;28;20066;-48
2020/12/27 06:23:38;;;;;;;3.20;1.90;;;5.10;92.00;;;;;;4997630;28;20050;-48
2020/12/27 06:26:06;;;;;;;6.13;2.13;;;5.20;92.00;;;;;;4980566;28;20073;-48
2020/12/27 06:28:33;;;;;;;3.05;2.17;;;5.20;91.60;;;;;;5009638;28;20104;-48
2020/12/27 06:31:06;;;;;;;3.88;2.10;;;5.20;91.80;;;;;;4978056;28;20049;-48
2020/12/27 06:33:36;;;;;;;6.28;2.50;;;5.20;91.90;;;;;;4993798;28;20104;-49
2020/12/27 06:36:03;;;;;;;3.60;2.17;;;5.10;92.20;;;;;;5010494;28;20038;-49
2020/12/27 06:38:32;;;;;;;4.18;2.00;;;5.20;92.10;;;;;;4996655;28;20113;-49
2020/12/27 06:41:06;;;;;;;2.47;1.80;;;5.20;92.30;;;;;;4978620;28;20042;-49
2020/12/27 06:43:41;;;;;;;2.15;1.60;;;5.20;91.80;;;;;;4994326;28;20073;-50
2020/12/27 06:46:26;;;;;;;2.80;2.03;;;5.20;91.70;;;;;;4992765;28;20034;-49
2020/12/27 06:49:10;;;;;;;2.10;1.45;;;5.30;92.00;;;;;;4980338;28;20049;-48
2020/12/27 06:51:40;;;;;;;2.85;1.50;;;5.30;91.90;;;;;;4989230;28;20074;-50
2020/12/27 06:54:07;;;;;;;3.00;1.80;;;5.30;91.70;;;;;;4985420;28;20058;-50
2020/12/27 06:56:45;;;;;;;4.30;1.50;;;5.30;91.80;;;;;;4988907;28;20473;-48
2020/12/27 06:59:12;;;;;;;2.75;1.60;;;5.30;91.90;;;;;;5006633;28;20144;-47
2020/12/27 07:01:38;;;;;;;1.98;1.10;;;5.30;92.00;;;;;;4989456;28;20034;-49
2020/12/27 07:04:18;;;;;;;3.20;1.70;;;5.30;91.90;;;;;;4983519;28;20562;-49
2020/12/27 07:06:45;;;;;;;2.70;1.58;;;5.20;92.20;;;;;;4989000;28;20041;-50
2020/12/27 07:09:20;;;;;;;2.00;1.50;;;5.20;92.30;;;;;;4992445;28;20038;-49
2020/12/27 07:11:47;;;;;;;2.92;1.50;;;5.30;92.00;;;;;;4991368;28;20073;-48
2020/12/27 07:14:14;;;;;;;1.83;1.40;;;5.30;92.40;;;;;;4988275;28;20038;-51
2020/12/27 07:16:43;;;;;;;3.70;1.10;;;5.20;92.40;;;;;;4988861;28;20126;-52
2020/12/27 07:19:14;;;;;;;3.30;1.40;;;5.30;92.40;;;;;;4989030;28;20041;-47
2020/12/27 07:21:40;;;;;;;1.77;1.20;;;5.30;92.50;;;;;;4990550;28;20056;-49
2020/12/27 07:24:08;;;;;;;3.47;1.40;;;5.40;92.30;;;;;;4987446;28;20066;-49
2020/12/27 07:26:43;;;;;;;2.85;1.48;;;5.40;92.20;;;;;;4987978;28;20446;-51
2020/12/27 07:29:14;;;;;;;2.05;1.20;;;5.40;92.50;;;;;;4989219;28;20667;-49
2020/12/27 07:31:41;;;;;;;2.63;1.02;;;5.30;92.60;;;;;;4987974;28;20418;-48
2020/12/27 07:34:08;;;;;;;1.88;1.00;;;5.30;92.70;;;;;;4987928;28;20499;-49
2020/12/27 07:36:35;;;;;;;1.70;1.08;;;5.30;92.60;;;;;;4979773;28;20047;-52
2020/12/27 07:39:04;;;;;;;1.55;1.13;;;5.40;92.50;;;;;;4985486;28;20038;-50
2020/12/27 07:41:36;;;;;;;2.47;1.20;;;5.40;92.60;;;;;;4993688;28;20038;-49
2020/12/27 07:44:14;;;;;;;1.58;1.00;;;5.40;92.70;;;;;;4995292;28;20066;-52
2020/12/27 07:46:41;;;;;;;2.35;0.90;;;5.50;92.40;;;;;;4988220;28;20031;-49
2020/12/27 07:49:08;;;;;;;1.20;0.88;;;5.50;92.50;;;;;;4982354;28;20042;-52
2020/12/27 07:51:34;;;;;;;3.92;1.15;;;5.50;92.40;;;;;;4991636;28;20046;-50
2020/12/27 07:54:00;;;;;;;1.50;0.70;;;5.50;92.40;;;;;;4972710;28;20562;-51
2020/12/27 07:56:27;;;;;;;1.08;0.98;;;5.50;92.50;;;;;;4991650;28;20043;-48
2020/12/27 07:58:57;;;;;;;1.75;0.90;;;5.50;92.40;;;;;;4991424;28;20410;-50
2020/12/27 08:01:28;;;;;;;2.08;0.80;;;5.50;92.80;;;;;;4991007;28;20500;-50
2020/12/27 08:03:58;;;;;;;1.73;0.82;;;5.60;92.50;;;;;;4990431;28;20116;-50
2020/12/27 08:06:25;;;;;;;0.70;0.70;;;5.60;92.40;;;;;;4994780;28;20460;-49
2020/12/27 08:09:05;;;;;;;1.40;1.00;;;5.60;92.30;;;;;;4992508;28;20047;-48
2020/12/27 08:11:33;;;;;;;1.42;0.88;;;5.60;92.40;;;;;;4992304;28;20093;-48
2020/12/27 08:14:06;;;;;;;1.67;0.95;;;5.60;92.30;;;;;;4993424;28;20034;-48
2020/12/27 08:16:33;;;;;;;0.60;0.60;;;5.60;92.40;;;;;;4984410;28;20121;-52
2020/12/27 08:19:10;;;;;;;0.63;0.63;;;5.60;92.60;;;;;;4992530;28;20402;-50
2020/12/27 08:21:42;;;;;;;0.70;0.70;;;5.60;92.50;;;;;;4984080;28;20047;-49
2020/12/27 08:24:09;;;;;;;1.15;0.77;;;5.70;92.20;;;;;;4992266;28;20043;-52
2020/12/27 08:26:42;;;;;;;1.95;0.55;;;5.70;92.40;;;;;;4994484;28;20487;-49
2020/12/27 08:29:16;;;;;;;1.88;0.70;;;5.70;92.40;;;;;;4986389;28;20037;-51
2020/12/27 08:31:48;;;;;;;0.70;0.70;;;5.70;92.50;;;;;;4985273;28;20415;-49
2020/12/27 08:34:14;;;;;;;0.70;0.70;;;5.60;92.60;;;;;;4990493;28;20066;-50
2020/12/27 08:36:48;;;;;;;1.48;0.50;;;5.60;92.70;;;;;;4990416;28;20376;-53
2020/12/27 08:39:21;;;;;;;0.70;0.70;;;5.70;92.40;;;;;;4989707;28;20073;-53
2020/12/27 08:42:01;;;;;;;0.98;0.73;;;5.70;92.40;;;;;;4992993;28;20346;-49
2020/12/27 08:44:38;;;;;;;1.38;1.02;;;5.70;92.40;;;;;;5005264;28;20477;-50
2020/12/27 08:47:04;;;;;;;0.93;0.80;;;5.60;92.70;;;;;;4993915;28;20062;-50
2020/12/27 08:50:30;;;;;;;1.13;0.65;;;5.60;92.90;;;;;;4989839;28;20438;-48
2020/12/27 08:53:05;;;;;;;0.45;0.45;;;5.60;92.60;;;;;;4977545;28;20049;-49
2020/12/27 08:55:30;;;;;;;0.75;0.75;;;5.70;92.60;;;;;;4988937;28;20070;-49
2020/12/27 08:58:00;;;;;;;1.63;0.80;;;5.70;92.50;;;;;;4991201;28;20069;-50
2020/12/27 09:00:36;;;;;;;1.50;1.02;;;5.70;92.40;;;;;;4986351;28;20034;-52
2020/12/27 09:03:06;;;;;;;1.30;0.70;;;5.70;92.50;;;;;;4993114;28;20046;-51
2020/12/27 09:05:33;;;;;;;0.68;0.55;;;5.80;92.30;;;;;;4988948;28;20058;-50
2020/12/27 09:08:12;;;;;;;1.10;0.80;;;5.80;92.20;;;;;;4988227;28;20133;-50
2020/12/27 09:10:38;;;;;;;0.60;0.50;;;5.80;92.20;;;;;;5000994;28;20046;-53
2020/12/27 09:13:08;;;;;;;1.58;0.68;;;5.80;92.20;;;;;;4992745;28;20111;-52
2020/12/27 09:15:43;;;;;;;0.63;0.60;;;5.80;92.40;;;;;;4982227;28;20042;-50
2020/12/27 09:18:14;;;;;;;0.60;0.60;;;5.80;92.30;;;;;;4990131;28;20565;-53
2020/12/27 09:20:46;;;;;;;2.00;0.70;;;5.80;92.50;;;;;;4979698;28;20038;-53
2020/12/27 09:23:17;;;;;;;2.10;0.52;;;5.80;92.40;;;;;;4988761;28;20120;-50
2020/12/27 09:25:44;;;;;;;1.10;0.70;;;5.80;92.50;;;;;;4988643;28;20049;-49
2020/12/27 09:28:18;;;;;;;0.85;0.60;;;5.80;92.50;;;;;;4993072;28;20117;-52
2020/12/27 09:30:45;;;;;;;0.60;0.50;;;5.80;92.40;;;;;;4994121;28;20046;-50
2020/12/27 09:33:11;;;;;;;1.92;0.50;;;5.80;92.70;;;;;;4988459;28;20039;-54
2020/12/27 09:35:37;;;;;;;0.38;0.38;;;5.80;92.20;;;;;;4993316;28;20038;-49
2020/12/27 09:38:17;;;;;;;1.38;1.00;;;5.80;92.60;;;;;;4992844;28;20050;-52
2020/12/27 09:40:43;;;;;;;1.52;0.40;;;5.80;92.60;;;;;;4984494;28;20447;-50
2020/12/27 09:43:09;;;;;;;1.60;0.60;;;5.80;92.50;;;;;;4986910;28;20042;-52
2020/12/27 09:45:40;;;;;;;1.42;0.52;;;5.80;92.60;;;;;;4985762;28;20046;-50
2020/12/27 09:48:06;;;;;;;0.60;0.50;;;5.80;92.90;;;;;;4987672;28;20089;-53
2020/12/27 09:50:37;;;;;;;0.47;0.45;;;5.80;92.50;;;;;;4992812;28;20042;-53
2020/12/27 09:53:04;;;;;;;0.40;0.40;;;5.80;92.60;;;;;;4961808;28;20054;-51
2020/12/27 09:55:31;;;;;;;0.55;0.40;;;5.80;92.40;;;;;;4992983;28;20499;-50
2020/12/27 09:57:57;;;;;;;1.60;0.75;;;5.90;92.20;;;;;;4991616;28;20125;-51
2020/12/27 10:00:23;;;;;;;0.52;0.30;;;5.80;92.40;;;;;;4981268;28;20122;-53
2020/12/27 10:02:49;;;;;;;0.47;0.30;;;5.80;92.30;;;;;;4991110;28;20088;-53
2020/12/27 10:05:15;;;;;;;0.68;0.60;;;5.80;92.50;;;;;;4990510;28;20088;-52
2020/12/27 10:07:43;;;;;;;0.65;0.40;;;5.80;92.30;;;;;;4991959;28;20061;-48
2020/12/27 10:10:11;;;;;;;0.85;0.40;;;5.80;92.00;;;;;;4988664;28;20049;-51
2020/12/27 10:12:37;;;;;;;1.85;0.63;;;5.90;92.20;;;;;;4991720;28;20406;-53
2020/12/27 10:15:07;;;;;;;0.43;0.43;;;5.90;92.10;;;;;;4991742;28;20042;-53
2020/12/27 10:17:33;;;;;;;0.50;0.30;;;5.80;92.30;;;;;;4992278;28;20142;-52
2020/12/27 10:20:00;;;;;;;0.75;0.50;;;5.90;92.20;;;;;;4993198;28;20042;-51
2020/12/27 10:22:29;;;;;;;0.40;0.40;;;5.80;92.60;;;;;;4989219;28;20418;-50
2020/12/27 10:24:56;;;;;;;0.80;0.57;;;5.90;92.00;;;;;;4992197;28;20047;-50
2020/12/27 10:27:24;;;;;;;0.30;0.30;;;5.80;92.40;;;;;;4990523;28;20117;-49
2020/12/27 10:29:50;;;;;;;2.33;0.50;;;5.80;92.60;;;;;;4992718;28;20045;-50
2020/12/27 10:32:18;;;;;;;0.40;0.40;;;5.80;92.40;;;;;;4991817;28;20042;-50
2020/12/27 10:34:44;;;;;;;0.85;0.50;;;5.90;92.40;;;;;;4983122;28;20062;-51
2020/12/27 10:37:10;;;;;;;0.63;0.60;;;5.80;92.50;;;;;;4989008;28;20034;-53
2020/12/27 10:39:36;;;;;;;0.50;0.50;;;5.80;92.80;;;;;;4991661;28;20078;-51
2020/12/27 10:42:02;;;;;;;0.40;0.40;;;5.80;92.60;;;;;;4992168;28;20066;-50
2020/12/27 10:44:27;;;;;;;0.47;0.47;;;5.90;92.40;;;;;;4991527;28;20507;-48
2020/12/27 10:46:54;;;;;;;1.58;0.52;;;5.90;92.40;;;;;;4992070;28;20105;-52
2020/12/27 10:49:22;;;;;;;1.38;0.45;;;5.80;92.40;;;;;;4980819;28;20479;-49
2020/12/27 10:51:48;;;;;;;0.47;0.47;;;5.80;92.20;;;;;;4993140;28;20145;-49
2020/12/27 10:54:14;;;;;;;0.63;0.57;;;5.80;92.30;;;;;;4992253;28;20133;-54
2020/12/27 10:56:42;;;;;;;1.27;0.60;;;5.90;92.30;;;;;;4985802;28;20134;-51
2020/12/27 10:59:07;;;;;;;2.28;0.43;;;5.80;92.30;;;;;;4978055;28;20046;-53
2020/12/27 11:01:33;;;;;;;0.20;0.20;;;5.80;92.20;;;;;;4992922;28;20039;-53
2020/12/27 11:03:59;;;;;;;2.50;0.60;;;5.80;92.20;;;;;;4991400;28;20501;-52
2020/12/27 11:06:29;;;;;;;0.52;0.52;;;5.80;92.50;;;;;;4977880;28;20066;-53
2020/12/27 11:08:55;;;;;;;0.65;0.63;;;5.80;92.60;;;;;;4988136;28;20039;-52
2020/12/27 11:11:21;;;;;;;0.50;0.50;;;5.80;92.40;;;;;;4987575;28;20177;-52
2020/12/27 11:13:48;;;;;;;0.52;0.50;;;5.80;92.60;;;;;;4991035;28;20058;-49
2020/12/27 11:16:15;;;;;;;0.85;0.50;;;5.80;92.60;;;;;;4987115;28;20134;-50
2020/12/27 11:18:40;;;;;;;0.90;0.43;;;5.80;92.50;;;;;;4996035;28;20472;-52
2020/12/27 11:21:06;;;;;;;0.32;0.32;;;5.90;92.20;;;;;;4996032;28;20042;-49
2020/12/27 11:23:32;;;;;;;1.08;0.50;;;5.80;92.60;;;;;;4988108;28;20093;-50
2020/12/27 11:25:57;;;;;;;2.10;0.40;;;5.80;92.60;;;;;;4994866;28;20042;-51
2020/12/27 11:28:23;;;;;;;1.13;0.50;;;5.90;92.30;;;;;;4996022;28;20050;-49
2020/12/27 11:30:48;;;;;;;0.85;0.68;;;5.90;92.30;;;;;;4995828;28;20552;-50
2020/12/27 11:33:19;;;;;;;1.45;0.30;;;5.80;92.50;;;;;;4997432;28;20517;-51
2020/12/27 11:35:50;;;;;;;0.85;0.55;;;5.80;92.40;;;;;;4990614;28;20058;-49
2020/12/27 11:38:19;;;;;;;1.45;0.82;;;5.90;92.30;;;;;;4984831;28;20051;-50
2020/12/27 11:40:45;;;;;;;0.80;0.63;;;5.80;92.50;;;;;;5005739;28;20046;-49
2020/12/27 11:43:11;;;;;;;0.95;0.60;;;5.90;92.60;;;;;;4991279;28;20047;-52
2020/12/27 11:45:39;;;;;;;0.85;0.68;;;5.80;92.60;;;;;;4989110;28;20481;-50
2020/12/27 11:48:05;;;;;;;0.80;0.50;;;5.90;92.60;;;;;;4994999;28;20120;-52
2020/12/27 11:50:30;;;;;;;1.10;0.22;;;5.80;92.70;;;;;;4992660;28;20483;-51
2020/12/27 11:52:56;;;;;;;0.45;0.45;;;5.90;92.60;;;;;;4995412;28;20114;-51
2020/12/27 11:55:22;;;;;;;0.63;0.55;;;5.90;92.60;;;;;;4995316;28;20081;-49
2020/12/27 11:57:48;;;;;;;0.70;0.60;;;5.90;92.60;;;;;;4989866;28;20414;-52
2020/12/27 12:00:18;;;;;;;0.88;0.77;;;5.90;92.50;;;;;;4991733;28;20030;-49
2020/12/27 12:02:44;;;;;;;1.70;1.00;;;5.90;92.70;;;;;;5003355;28;20065;-53
2020/12/27 12:05:11;;;;;;;1.15;0.80;;;5.80;93.00;;;;;;4984183;28;20045;-51
2020/12/27 12:07:38;;;;;;;1.88;1.20;;;5.80;92.90;;;;;;4995952;28;20053;-49
2020/12/27 12:10:05;;;;;;;1.13;0.85;;;5.80;92.70;;;;;;4982014;28;20502;-49
2020/12/27 12:12:31;;;;;;;1.85;0.90;;;5.90;92.50;;;;;;4978220;28;20050;-51
2020/12/27 12:14:56;;;;;;;2.20;1.15;;;5.80;92.60;;;;;;4997075;28;20045;-53
2020/12/27 12:17:22;;;;;;;2.85;0.93;;;5.80;92.80;;;;;;4982985;28;20043;-52
2020/12/27 12:19:48;;;;;;;1.30;1.00;;;5.80;93.00;;;;;;4994427;28;20042;-54
2020/12/27 12:22:17;;;;;;;0.75;0.70;;;5.80;93.00;;;;;;4995159;28;20415;-53
2020/12/27 12:24:43;;;;;;;0.90;0.68;;;5.80;93.10;;;;;;4981486;28;20121;-50
2020/12/27 12:27:10;;;;;;;1.08;0.75;;;5.70;93.10;;;;;;4996490;28;20081;-49
2020/12/27 12:29:37;;;;;;;2.25;0.60;;;5.80;93.10;;;;;;4983673;28;20419;-51
2020/12/27 12:32:02;;;;;;;1.02;0.60;;;5.80;93.00;;;;;;4999805;28;20050;-51
2020/12/27 12:34:28;;;;;;;0.63;0.50;;;5.80;92.90;;;;;;4999889;28;20113;-48
2020/12/27 12:36:53;;;;;;;2.58;0.52;;;5.80;92.90;;;;;;4998508;28;20070;-48
2020/12/27 12:39:21;;;;;;;1.02;0.60;;;5.80;93.00;;;;;;5000172;28;20065;-50
2020/12/27 12:41:48;;;;;;;0.52;0.52;;;5.80;92.80;;;;;;4987479;28;20118;-48
2020/12/27 12:44:13;;;;;;;0.85;0.60;;;5.70;93.10;;;;;;5000350;28;20074;-50
2020/12/27 12:46:39;;;;;;;1.88;0.70;;;5.80;93.00;;;;;;4997043;28;20035;-48
2020/12/27 12:49:07;;;;;;;0.65;0.52;;;5.80;93.00;;;;;;4983809;28;20133;-51
2020/12/27 12:51:33;;;;;;;0.88;0.65;;;5.70;93.30;;;;;;4992335;28;20054;-52
2020/12/27 12:53:59;;;;;;;1.13;0.50;;;5.80;93.10;;;;;;5016119;28;20070;-52
2020/12/27 12:56:24;;;;;;;0.60;0.60;;;5.80;93.00;;;;;;5001551;28;20052;-53
2020/12/27 12:58:52;;;;;;;1.23;0.70;;;5.80;93.20;;;;;;4984334;28;20039;-52
2020/12/27 13:01:17;;;;;;;0.70;0.63;;;5.80;93.40;;;;;;4989023;28;20503;-51